createdAt,value
2023-03-06T00:00:26.606Z,9.63
2023-03-06T00:02:53.424Z,8.10
2023-03-06T00:05:20.151Z,11.50
2023-03-06T00:07:46.816Z,12.95
2023-03-06T00:10:15.186Z,12.90
2023-03-06T00:12:42.071Z,11.85
2023-03-06T00:15:10.279Z,14.02
2023-03-06T00:17:37.230Z,10.82
2023-03-06T00:20:05.329Z,9.13
2023-03-06T00:22:31.978Z,11.05
2023-03-06T00:24:58.616Z,11.88
2023-03-06T00:27:25.273Z,9.90
2023-03-06T00:29:56.213Z,14.55
2023-03-06T00:32:23.039Z,11.30
2023-03-06T00:34:50.654Z,12.40
2023-03-06T00:37:17.304Z,10.77
2023-03-06T00:39:44.044Z,12.88
2023-03-06T00:42:10.635Z,10.45
2023-03-06T00:44:37.308Z,10.30
2023-03-06T00:47:04.183Z,10.93
2023-03-06T00:49:30.774Z,11.80
2023-03-06T00:51:57.338Z,14.35
2023-03-06T00:54:23.923Z,12.82
2023-03-06T00:56:50.480Z,12.13
2023-03-06T00:59:17.103Z,11.93
2023-03-06T01:01:43.852Z,13.95
2023-03-06T01:04:10.560Z,15.38
2023-03-06T01:06:37.302Z,12.90
2023-03-06T01:09:04.696Z,11.48
2023-03-06T01:11:31.518Z,15.65
2023-03-06T01:13:58.118Z,11.52
2023-03-06T01:16:24.781Z,12.55
2023-03-06T01:18:51.407Z,11.88
2023-03-06T01:21:17.970Z,13.70
2023-03-06T01:23:44.673Z,11.70
2023-03-06T01:26:11.258Z,12.60
2023-03-06T01:28:37.891Z,12.32
2023-03-06T01:31:04.986Z,10.57
2023-03-06T01:33:31.608Z,12.25
2023-03-06T01:35:58.181Z,11.70
2023-03-06T01:38:24.793Z,11.85
2023-03-06T01:40:51.367Z,13.27
2023-03-06T01:43:34.972Z,12.75
2023-03-06T01:46:21.624Z,11.13
2023-03-06T01:48:48.606Z,10.95
2023-03-06T01:51:15.875Z,14.18
2023-03-06T01:53:42.463Z,11.32
2023-03-06T01:56:09.752Z,15.63
2023-03-06T01:58:36.373Z,14.07
2023-03-06T02:03:41.734Z,14.70
2023-03-06T02:06:08.593Z,13.65
2023-03-06T02:08:35.539Z,14.35
2023-03-06T02:11:08.165Z,14.95
2023-03-06T02:13:35.720Z,14.95
2023-03-06T02:16:02.382Z,10.80
2023-03-06T02:18:29.298Z,16.38
2023-03-06T02:21:00.372Z,11.65
2023-03-06T02:23:52.122Z,11.13
2023-03-06T02:26:18.842Z,15.45
2023-03-06T02:28:45.566Z,12.48
2023-03-06T02:31:24.109Z,12.95
2023-03-06T02:34:16.565Z,11.20
2023-03-06T02:36:46.611Z,12.98
2023-03-06T02:41:40.014Z,14.18
2023-03-06T02:44:06.705Z,15.02
2023-03-06T02:46:33.343Z,19.40
2023-03-06T02:49:00.064Z,23.52
2023-03-06T02:51:27.176Z,21.85
2023-03-06T02:53:53.898Z,21.23
2023-03-06T02:56:20.597Z,22.35
2023-03-06T02:58:47.265Z,28.15
2023-03-06T03:01:13.961Z,25.10
2023-03-06T03:03:40.631Z,24.92
2023-03-06T03:06:07.612Z,27.17
2023-03-06T03:08:34.447Z,24.13
2023-03-06T03:11:01.162Z,29.13
2023-03-06T03:13:27.766Z,27.80
2023-03-06T03:15:59.164Z,26.50
2023-03-06T03:18:25.834Z,29.95
2023-03-06T03:20:52.479Z,32.20
2023-03-06T03:23:19.120Z,30.70
2023-03-06T03:25:45.720Z,33.20
2023-03-06T03:28:12.320Z,32.22
2023-03-06T03:30:39.971Z,30.48
2023-03-06T03:33:06.634Z,30.48
2023-03-06T03:35:33.453Z,24.35
2023-03-06T03:38:00.057Z,29.17
2023-03-06T03:40:26.758Z,27.65
2023-03-06T03:42:53.426Z,34.83
2023-03-06T03:45:20.072Z,30.63
2023-03-06T03:47:46.672Z,31.52
2023-03-06T03:50:13.264Z,32.45
2023-03-06T03:52:39.919Z,33.90
2023-03-06T03:55:07.142Z,24.83
2023-03-06T03:57:33.739Z,28.25
2023-03-06T04:00:00.427Z,27.05
2023-03-06T04:02:27.017Z,27.98
2023-03-06T04:04:53.680Z,24.70
2023-03-06T04:07:20.267Z,30.27
2023-03-06T04:09:46.885Z,26.80
2023-03-06T04:12:13.530Z,23.33
2023-03-06T04:14:40.155Z,29.90
2023-03-06T04:17:06.772Z,25.85
2023-03-06T04:19:33.390Z,27.20
2023-03-06T04:21:59.977Z,29.80
2023-03-06T04:24:26.562Z,28.30
2023-03-06T04:26:53.210Z,26.60
2023-03-06T04:29:19.856Z,28.70
2023-03-06T04:31:46.544Z,31.77
2023-03-06T04:34:13.441Z,28.42
2023-03-06T04:36:40.157Z,26.38
2023-03-06T04:39:06.796Z,33.22
2023-03-06T04:41:33.456Z,24.67
2023-03-06T04:44:00.159Z,25.52
2023-03-06T04:46:26.763Z,36.95
2023-03-06T04:48:53.337Z,29.08
2023-03-06T04:51:19.976Z,32.58
2023-03-06T04:53:46.644Z,34.50
2023-03-06T04:56:13.214Z,34.97
2023-03-06T04:58:39.817Z,32.83
2023-03-06T05:01:06.538Z,40.80
2023-03-06T05:03:33.129Z,39.40
2023-03-06T05:05:59.750Z,38.78
2023-03-06T05:08:26.327Z,38.15
2023-03-06T05:10:57.579Z,46.13
2023-03-06T05:13:24.571Z,45.90
2023-03-06T05:15:51.164Z,44.75
2023-03-06T05:18:17.979Z,47.45
2023-03-06T05:20:44.697Z,45.17
2023-03-06T05:23:11.397Z,41.50
2023-03-06T05:25:41.149Z,42.42
2023-03-06T05:28:07.865Z,53.83
2023-03-06T05:30:34.512Z,56.80
2023-03-06T05:33:01.166Z,51.22
2023-03-06T05:35:27.801Z,67.72
2023-03-06T05:37:54.650Z,56.58
2023-03-06T05:40:21.447Z,74.53
2023-03-06T05:42:48.073Z,65.70
2023-03-06T05:45:14.676Z,71.50
2023-03-06T05:47:41.343Z,62.38
2023-03-06T05:50:08.484Z,66.07
2023-03-06T05:52:35.097Z,75.97
2023-03-06T05:55:01.900Z,70.93
2023-03-06T05:57:28.551Z,63.45
2023-03-06T05:59:55.138Z,72.85
2023-03-06T06:02:21.743Z,62.03
2023-03-06T06:04:48.441Z,71.53
2023-03-06T06:07:16.528Z,71.65
2023-03-06T06:09:43.605Z,65.95
2023-03-06T06:12:10.276Z,60.25
2023-03-06T06:14:36.882Z,66.25
2023-03-06T06:17:03.896Z,78.25
2023-03-06T06:19:30.923Z,68.38
2023-03-06T06:21:58.028Z,61.80
2023-03-06T06:24:25.737Z,67.88
2023-03-06T06:26:53.369Z,68.70
2023-03-06T06:29:20.018Z,71.45
2023-03-06T06:31:46.769Z,71.97
2023-03-06T06:34:13.595Z,95.05
2023-03-06T06:36:40.330Z,72.28
2023-03-06T06:39:07.276Z,72.53
2023-03-06T06:41:53.074Z,77.45
2023-03-06T06:44:20.724Z,77.47
2023-03-06T06:47:21.185Z,66.57
2023-03-06T06:49:34.191Z,67.80
2023-03-06T06:52:01.023Z,66.13
2023-03-06T06:54:27.691Z,69.28
2023-03-06T06:56:54.327Z,62.80
2023-03-06T06:59:20.951Z,62.83
2023-03-06T07:01:47.554Z,51.58
2023-03-06T07:04:14.495Z,56.75
2023-03-06T07:06:42.073Z,58.90
2023-03-06T07:09:08.811Z,59.55
2023-03-06T07:11:35.458Z,56.17
2023-03-06T07:14:02.108Z,62.88
2023-03-06T07:16:31.208Z,63.40
2023-03-06T07:18:57.785Z,57.63
2023-03-06T07:21:25.457Z,63.67
2023-03-06T07:23:52.022Z,63.35
2023-03-06T07:26:18.626Z,67.45
2023-03-06T07:28:52.283Z,63.15
2023-03-06T07:31:20.702Z,66.45
2023-03-06T07:33:48.485Z,61.03
2023-03-06T07:36:16.765Z,65.45
2023-03-06T07:38:43.732Z,67.82
2023-03-06T07:41:10.618Z,70.32
2023-03-06T07:43:37.276Z,63.83
2023-03-06T07:46:04.043Z,77.03
2023-03-06T07:48:30.628Z,65.10
2023-03-06T07:51:01.863Z,70.28
2023-03-06T07:53:28.781Z,70.35
2023-03-06T07:55:55.656Z,60.47
2023-03-06T07:58:22.429Z,63.10
2023-03-06T08:00:49.123Z,70.25
2023-03-06T08:03:15.945Z,66.47
2023-03-06T08:05:42.676Z,44.90
2023-03-06T08:08:09.268Z,57.80
2023-03-06T08:10:35.864Z,58.60
2023-03-06T08:13:02.459Z,61.95
2023-03-06T08:15:29.128Z,64.63
2023-03-06T08:17:55.750Z,60.13
2023-03-06T08:20:22.348Z,53.80
2023-03-06T08:22:48.931Z,66.45
2023-03-06T08:25:15.566Z,59.60
2023-03-06T08:27:42.156Z,54.17
2023-03-06T08:30:09.429Z,58.60
2023-03-06T08:32:36.768Z,63.15
2023-03-06T08:35:04.601Z,62.55
2023-03-06T08:37:31.279Z,66.63
2023-03-06T08:39:58.034Z,62.38
2023-03-06T08:42:24.649Z,65.40
2023-03-06T08:44:51.231Z,67.65
2023-03-06T08:47:17.796Z,64.85
2023-03-06T08:49:44.413Z,61.17
2023-03-06T08:52:10.990Z,62.15
2023-03-06T08:54:37.630Z,59.45
2023-03-06T08:57:04.198Z,51.88
2023-03-06T08:59:32.863Z,60.75
2023-03-06T09:01:59.524Z,56.47
2023-03-06T09:04:26.267Z,61.30
2023-03-06T09:06:54.601Z,60.35
2023-03-06T09:09:22.148Z,45.42
2023-03-06T09:11:48.801Z,56.80
2023-03-06T09:14:15.465Z,60.92
2023-03-06T09:16:42.216Z,58.72
2023-03-06T09:19:08.861Z,61.50
2023-03-06T09:21:35.705Z,44.22
2023-03-06T09:24:02.371Z,42.47
2023-03-06T09:26:43.298Z,40.15
2023-03-06T09:29:11.661Z,43.05
2023-03-06T09:31:38.375Z,32.53
2023-03-06T09:34:05.080Z,35.88
2023-03-06T09:36:33.294Z,33.28
2023-03-06T09:39:04.459Z,29.98
2023-03-06T09:41:38.341Z,29.65
2023-03-06T09:44:06.373Z,27.80
2023-03-06T09:47:02.168Z,27.10
2023-03-06T09:49:59.232Z,32.28
2023-03-06T09:52:49.214Z,25.40
2023-03-06T09:55:19.593Z,23.00
2023-03-06T09:58:01.326Z,28.90
2023-03-06T10:00:34.722Z,28.33
2023-03-06T10:03:14.688Z,23.88
2023-03-06T10:05:43.607Z,23.90
2023-03-06T10:08:21.889Z,25.42
2023-03-06T10:10:58.753Z,22.95
2023-03-06T10:13:27.284Z,22.83
2023-03-06T10:16:01.020Z,23.48
2023-03-06T10:18:27.732Z,24.10
2023-03-06T10:21:17.009Z,21.38
2023-03-06T10:23:58.667Z,20.95
2023-03-06T10:26:26.647Z,25.10
2023-03-06T10:29:13.644Z,23.73
2023-03-06T10:31:42.565Z,21.20
2023-03-06T10:34:22.251Z,20.40
2023-03-06T10:36:49.302Z,25.35
2023-03-06T10:39:20.636Z,25.02
2023-03-06T10:41:47.811Z,20.25
2023-03-06T10:44:14.504Z,23.23
2023-03-06T10:46:48.331Z,19.52
2023-03-06T10:49:25.317Z,14.73
2023-03-06T10:52:18.270Z,16.08
2023-03-06T10:54:44.996Z,18.42
2023-03-06T10:57:28.791Z,14.52
2023-03-06T11:00:00.161Z,18.15
2023-03-06T11:02:29.471Z,16.90
2023-03-06T11:04:56.310Z,14.15
2023-03-06T11:07:24.399Z,18.45
2023-03-06T11:09:57.045Z,15.55
2023-03-06T11:12:27.883Z,12.30
2023-03-06T11:15:08.853Z,16.08
2023-03-06T11:17:58.149Z,13.50
2023-03-06T11:20:35.758Z,13.60
2023-03-06T11:23:16.790Z,12.88
2023-03-06T11:25:55.432Z,14.25
2023-03-06T11:28:28.123Z,12.48
2023-03-06T11:31:05.723Z,14.32
2023-03-06T11:33:58.266Z,14.70
2023-03-06T11:36:36.247Z,12.77
2023-03-06T11:39:03.882Z,14.02
2023-03-06T11:41:42.462Z,16.20
2023-03-06T11:44:45.961Z,15.85
2023-03-06T11:47:19.423Z,16.33
2023-03-06T11:50:05.651Z,17.48
2023-03-06T11:52:57.515Z,15.48
2023-03-06T11:55:48.473Z,16.92
2023-03-06T11:58:33.763Z,15.05
2023-03-06T12:01:11.715Z,11.60
2023-03-06T12:03:45.973Z,12.27
2023-03-06T12:06:28.783Z,12.70
2023-03-06T12:08:57.313Z,10.60
2023-03-06T12:11:33.798Z,10.32
2023-03-06T12:14:15.488Z,10.35
2023-03-06T12:16:48.656Z,10.82
2023-03-06T12:19:33.979Z,10.73
2023-03-06T12:22:39.030Z,11.48
2023-03-06T12:25:33.745Z,11.80
2023-03-06T12:28:22.217Z,9.60
2023-03-06T12:31:08.193Z,9.50
2023-03-06T12:33:54.838Z,7.60
2023-03-06T12:36:45.217Z,6.50
2023-03-06T12:39:35.990Z,7.18
2023-03-06T12:42:23.590Z,7.55
2023-03-06T12:44:56.272Z,10.68
2023-03-06T12:47:25.289Z,11.07
2023-03-06T12:50:01.230Z,12.63
2023-03-06T12:52:30.683Z,11.82
2023-03-06T12:55:01.287Z,13.70
2023-03-06T12:57:29.238Z,13.48
2023-03-06T12:59:55.886Z,10.80
2023-03-06T13:02:47.397Z,12.57
2023-03-06T13:05:14.101Z,10.20
2023-03-06T13:07:52.972Z,9.50
2023-03-06T13:10:29.324Z,13.23
2023-03-06T13:13:22.504Z,10.90
2023-03-06T13:16:13.392Z,13.38
2023-03-06T13:18:43.183Z,12.75
2023-03-06T13:24:05.360Z,12.32
2023-03-06T13:26:31.924Z,13.70
2023-03-06T13:28:58.556Z,12.25
2023-03-06T13:31:48.823Z,14.63
2023-03-06T13:34:35.222Z,10.48
2023-03-06T13:37:13.970Z,15.00
2023-03-06T13:39:55.312Z,14.52
2023-03-06T13:42:43.977Z,16.75
2023-03-06T13:45:15.082Z,15.18
2023-03-06T13:48:14.154Z,13.52
2023-03-06T13:50:37.379Z,14.88
2023-03-06T13:53:32.752Z,16.17
2023-03-06T13:56:11.551Z,14.82
2023-03-06T13:58:41.210Z,19.20
2023-03-06T14:01:23.412Z,13.25
2023-03-06T14:04:31.322Z,17.95
2023-03-06T14:07:07.103Z,15.95
2023-03-06T14:09:58.333Z,15.70
2023-03-06T14:12:31.190Z,15.70
2023-03-06T14:14:58.875Z,21.33
2023-03-06T14:17:32.511Z,12.63
2023-03-06T14:20:02.662Z,16.98
2023-03-06T14:22:29.320Z,16.65
2023-03-06T14:25:04.692Z,20.45
2023-03-06T14:27:38.748Z,17.42
2023-03-06T14:30:11.665Z,22.38
2023-03-06T14:32:38.501Z,17.92
2023-03-06T14:35:05.557Z,22.10
2023-03-06T14:37:32.132Z,18.30
2023-03-06T14:39:58.777Z,19.13
2023-03-06T14:42:29.064Z,20.60
2023-03-06T14:45:02.685Z,20.27
2023-03-06T14:47:30.908Z,18.08
2023-03-06T14:50:19.315Z,19.85
2023-03-06T14:52:45.996Z,19.17
2023-03-06T14:55:19.525Z,19.08
2023-03-06T14:57:49.049Z,17.27
2023-03-06T15:00:20.882Z,17.95
2023-03-06T15:02:47.707Z,15.40
2023-03-06T15:05:35.022Z,15.52
2023-03-06T15:08:03.841Z,16.45
2023-03-06T15:10:32.186Z,18.70
2023-03-06T15:13:09.966Z,19.02
2023-03-06T15:15:36.666Z,23.25
2023-03-06T15:18:03.391Z,12.38
2023-03-06T15:20:41.176Z,17.67
2023-03-06T15:23:18.786Z,17.45
2023-03-06T15:26:17.075Z,16.60
2023-03-06T15:28:43.794Z,17.00
2023-03-06T15:31:10.964Z,17.40
2023-03-06T15:33:37.682Z,19.42
2023-03-06T15:36:05.502Z,16.67
2023-03-06T15:38:45.344Z,20.30
2023-03-06T15:41:33.580Z,19.85
2023-03-06T15:44:00.992Z,20.70
2023-03-06T15:46:28.282Z,19.80
2023-03-06T15:48:56.431Z,21.30
2023-03-06T15:51:23.178Z,21.30
2023-03-06T15:53:50.290Z,22.52
2023-03-06T15:56:19.288Z,13.75
2023-03-06T15:58:45.921Z,21.95
2023-03-06T16:01:16.700Z,18.55
2023-03-06T16:03:44.622Z,20.45
2023-03-06T16:06:16.434Z,22.45
2023-03-06T16:08:43.179Z,19.30
2023-03-06T16:11:26.027Z,13.95
2023-03-06T16:13:54.664Z,19.73
2023-03-06T16:16:43.277Z,18.42
2023-03-06T16:19:25.923Z,17.80
2023-03-06T16:21:53.391Z,18.10
2023-03-06T16:24:20.001Z,15.25
2023-03-06T16:26:50.538Z,16.13
2023-03-06T16:29:21.576Z,12.80
2023-03-06T16:31:48.255Z,17.00
2023-03-06T16:34:15.011Z,19.67
2023-03-06T16:36:41.778Z,15.55
2023-03-06T16:39:18.793Z,19.60
2023-03-06T16:41:45.644Z,20.67
2023-03-06T16:44:12.873Z,16.98
2023-03-06T16:46:41.552Z,18.95
2023-03-06T16:49:10.736Z,17.58
2023-03-06T16:51:37.359Z,19.35
2023-03-06T16:54:05.004Z,18.27
2023-03-06T16:56:31.602Z,20.88
2023-03-06T16:58:58.246Z,23.10
2023-03-06T17:01:35.032Z,20.60
2023-03-06T17:04:01.779Z,20.08
2023-03-06T17:06:28.505Z,27.33
2023-03-06T17:08:55.065Z,20.48
2023-03-06T17:11:21.744Z,21.48
2023-03-06T17:13:48.478Z,23.85
2023-03-06T17:16:15.545Z,27.05
2023-03-06T17:18:43.159Z,25.73
2023-03-06T17:21:09.744Z,29.58
2023-03-06T17:23:36.427Z,22.65
2023-03-06T17:26:29.487Z,18.58
2023-03-06T17:28:56.167Z,26.20
2023-03-06T17:31:24.478Z,25.73
2023-03-06T17:33:51.357Z,31.38
2023-03-06T17:36:18.177Z,26.55
2023-03-06T17:38:44.919Z,26.35
2023-03-06T17:41:12.058Z,29.35
2023-03-06T17:43:39.151Z,27.30
2023-03-06T17:46:06.780Z,22.30
2023-03-06T17:48:33.701Z,24.98
2023-03-06T17:51:00.395Z,32.92
2023-03-06T17:53:27.160Z,32.58
2023-03-06T17:55:54.647Z,29.23
2023-03-06T17:58:21.214Z,32.40
2023-03-06T18:00:47.876Z,24.20
2023-03-06T18:03:24.720Z,30.02
2023-03-06T18:06:01.204Z,25.73
2023-03-06T18:08:27.854Z,32.78
2023-03-06T18:11:02.641Z,31.30
2023-03-06T18:13:29.406Z,55.58
2023-03-06T18:15:56.131Z,32.95
2023-03-06T18:18:25.833Z,27.90
2023-03-06T18:20:52.483Z,27.77
2023-03-06T18:23:19.170Z,27.88
2023-03-06T18:25:45.841Z,27.77
2023-03-06T18:28:12.566Z,27.10
2023-03-06T18:30:39.753Z,25.05
2023-03-06T18:33:06.633Z,27.67
2023-03-06T18:35:33.846Z,28.17
2023-03-06T18:38:00.763Z,20.48
2023-03-06T18:40:27.419Z,19.52
2023-03-06T18:42:54.196Z,22.77
2023-03-06T18:45:20.897Z,25.05
2023-03-06T18:47:47.556Z,20.67
2023-03-06T18:50:14.170Z,26.13
2023-03-06T18:52:40.762Z,23.05
2023-03-06T18:55:07.635Z,22.15
2023-03-06T18:57:34.197Z,23.45
2023-03-06T19:00:00.985Z,26.33
2023-03-06T19:02:27.664Z,18.25
2023-03-06T19:04:54.267Z,16.67
2023-03-06T19:07:20.896Z,19.80
2023-03-06T19:09:50.603Z,16.20
2023-03-06T19:12:17.332Z,22.48
2023-03-06T19:14:44.277Z,21.42
2023-03-06T19:17:10.903Z,20.42
2023-03-06T19:19:37.478Z,19.70
2023-03-06T19:22:04.149Z,17.60
2023-03-06T19:24:30.776Z,19.50
2023-03-06T19:26:57.428Z,17.75
2023-03-06T19:29:24.020Z,26.73
2023-03-06T19:31:50.730Z,19.73
2023-03-06T19:34:17.439Z,21.25
2023-03-06T19:36:44.105Z,25.83
2023-03-06T19:39:10.951Z,15.43
2023-03-06T19:41:37.572Z,25.02
2023-03-06T19:44:04.260Z,24.80
2023-03-06T19:46:30.959Z,23.00
2023-03-06T19:49:01.482Z,24.17
2023-03-06T19:51:29.016Z,21.45
2023-03-06T19:53:56.319Z,25.83
2023-03-06T19:56:27.302Z,21.95
2023-03-06T19:58:54.045Z,18.08
2023-03-06T20:01:21.661Z,26.70
2023-03-06T20:03:48.381Z,28.33
2023-03-06T20:06:17.034Z,22.88
2023-03-06T20:08:43.812Z,15.32
2023-03-06T20:11:24.388Z,9.85
2023-03-06T20:13:51.056Z,9.38
2023-03-06T20:16:17.995Z,8.65
2023-03-06T20:18:44.713Z,13.60
2023-03-06T20:21:11.309Z,5.47
2023-03-06T20:23:37.933Z,5.80
2023-03-06T20:26:05.525Z,7.35
2023-03-06T20:28:32.982Z,8.90
2023-03-06T20:30:59.584Z,4.75
2023-03-06T20:33:26.243Z,9.35
2023-03-06T20:35:53.848Z,5.70
2023-03-06T20:38:20.533Z,8.70
2023-03-06T20:40:47.281Z,6.80
2023-03-06T20:43:13.952Z,8.18
2023-03-06T20:45:40.649Z,10.02
2023-03-06T20:48:07.301Z,7.53
2023-03-06T20:50:33.886Z,10.68
2023-03-06T20:53:00.599Z,9.65
2023-03-06T20:55:27.231Z,12.07
2023-03-06T20:57:54.131Z,10.98
2023-03-06T21:00:20.989Z,14.57
2023-03-06T21:02:47.707Z,10.40
2023-03-06T21:05:14.453Z,12.40
2023-03-06T21:07:41.160Z,11.15
2023-03-06T21:10:09.061Z,15.35
2023-03-06T21:12:35.636Z,12.68
2023-03-06T21:15:03.507Z,14.57
2023-03-06T21:17:30.652Z,13.48
2023-03-06T21:19:57.325Z,10.55
2023-03-06T21:22:23.989Z,9.63
2023-03-06T21:24:50.646Z,9.35
2023-03-06T21:27:17.451Z,16.40
2023-03-06T21:29:44.645Z,12.77
2023-03-06T21:32:11.308Z,15.18
2023-03-06T21:34:38.025Z,12.43
2023-03-06T21:37:04.659Z,14.13
2023-03-06T21:39:31.333Z,14.20
2023-03-06T21:41:58.013Z,16.15
2023-03-06T21:44:24.692Z,13.65
2023-03-06T21:46:51.290Z,13.20
2023-03-06T21:49:17.970Z,15.55
2023-03-06T21:51:44.568Z,12.57
2023-03-06T21:54:11.145Z,9.48
2023-03-06T21:56:37.818Z,11.60
2023-03-06T21:59:04.413Z,14.68
2023-03-06T22:01:31.075Z,6.90
2023-03-06T22:03:57.768Z,11.98
2023-03-06T22:06:25.637Z,7.80
2023-03-06T22:08:52.449Z,5.63
2023-03-06T22:11:20.243Z,8.73
2023-03-06T22:13:47.010Z,7.93
2023-03-06T22:16:13.928Z,8.57
2023-03-06T22:18:43.504Z,6.95
2023-03-06T22:21:10.833Z,7.43
2023-03-06T22:23:37.634Z,5.13
2023-03-06T22:26:05.398Z,8.05
2023-03-06T22:28:32.154Z,6.55
2023-03-06T22:31:12.512Z,9.15
2023-03-06T22:33:39.259Z,5.28
2023-03-06T22:36:07.613Z,6.45
2023-03-06T22:38:35.165Z,6.32
2023-03-06T22:41:01.846Z,4.10
2023-03-06T22:43:28.541Z,6.35
2023-03-06T22:45:55.239Z,5.82
2023-03-06T22:48:21.939Z,4.97
2023-03-06T22:50:48.567Z,5.60
2023-03-06T22:53:15.150Z,6.00
2023-03-06T22:55:41.716Z,2.95
2023-03-06T22:58:08.307Z,3.22
2023-03-06T23:00:35.024Z,3.53
2023-03-06T23:03:01.626Z,2.88
2023-03-06T23:05:29.530Z,3.90
2023-03-06T23:07:56.203Z,5.22
2023-03-06T23:10:22.868Z,4.70
2023-03-06T23:12:49.488Z,5.97
2023-03-06T23:15:16.139Z,5.03
2023-03-06T23:17:42.787Z,2.58
2023-03-06T23:20:10.242Z,6.32
2023-03-06T23:22:36.860Z,4.00
2023-03-06T23:25:03.822Z,7.78
2023-03-06T23:27:30.444Z,4.13
2023-03-06T23:29:57.001Z,3.00
2023-03-06T23:32:23.619Z,3.78
2023-03-06T23:34:50.296Z,6.03
2023-03-06T23:37:16.968Z,7.38
2023-03-06T23:39:43.555Z,2.17
2023-03-06T23:42:10.164Z,2.50
2023-03-06T23:44:36.786Z,6.80
2023-03-06T23:47:03.404Z,6.00
2023-03-06T23:49:30.012Z,5.88
2023-03-06T23:51:56.605Z,5.20
2023-03-06T23:54:23.208Z,7.57
2023-03-06T23:56:49.858Z,8.10
2023-03-06T23:59:16.479Z,8.63
